sensor_id;sensor_type;location;lat;lon;timestamp;P1;durP1;ratioP1;P2;durP2;ratioP2
72924;SDS011;61070;50.794;7.054;2022-12-07T00:03:47;44.50;;;23.10;;
72924;SDS011;61070;50.794;7.054;2022-12-07T00:06:14;53.95;;;24.42;;
72924;SDS011;61070;50.794;7.054;2022-12-07T00:08:40;54.35;;;25.65;;
72924;SDS011;61070;50.794;7.054;2022-12-07T00:11:10;49.65;;;25.50;;
72924;SDS011;61070;50.794;7.054;2022-12-07T00:13:37;51.08;;;25.30;;
72924;SDS011;61070;50.794;7.054;2022-12-07T00:16:04;54.50;;;25.10;;
72924;SDS011;61070;50.794;7.054;2022-12-07T00:18:30;53.67;;;24.80;;
72924;SDS011;61070;50.794;7.054;2022-12-07T00:21:02;49.80;;;25.17;;
72924;SDS011;61070;50.794;7.054;2022-12-07T00:23:32;48.58;;;25.00;;
72924;SDS011;61070;50.794;7.054;2022-12-07T00:26:08;47.25;;;23.90;;
72924;SDS011;61070;50.794;7.054;2022-12-07T00:28:35;50.58;;;26.25;;
72924;SDS011;61070;50.794;7.054;2022-12-07T00:31:09;46.58;;;24.17;;
72924;SDS011;61070;50.794;7.054;2022-12-07T00:33:37;53.03;;;25.00;;
72924;SDS011;61070;50.794;7.054;2022-12-07T00:36:03;46.25;;;24.58;;
72924;SDS011;61070;50.794;7.054;2022-12-07T00:38:32;48.22;;;25.30;;
72924;SDS011;61070;50.794;7.054;2022-12-07T00:41:00;57.67;;;26.08;;
72924;SDS011;61070;50.794;7.054;2022-12-07T00:43:27;54.78;;;25.45;;
72924;SDS011;61070;50.794;7.054;2022-12-07T00:45:53;45.67;;;26.08;;
72924;SDS011;61070;50.794;7.054;2022-12-07T00:48:18;47.95;;;27.00;;
72924;SDS011;61070;50.794;7.054;2022-12-07T00:50:44;54.40;;;26.50;;
72924;SDS011;61070;50.794;7.054;2022-12-07T00:53:09;46.08;;;24.30;;
72924;SDS011;61070;50.794;7.054;2022-12-07T00:55:35;49.85;;;26.48;;
72924;SDS011;61070;50.794;7.054;2022-12-07T00:58:01;48.78;;;26.83;;
72924;SDS011;61070;50.794;7.054;2022-12-07T01:00:27;54.80;;;26.23;;
72924;SDS011;61070;50.794;7.054;2022-12-07T01:02:52;48.50;;;26.33;;
72924;SDS011;61070;50.794;7.054;2022-12-07T01:05:18;54.03;;;27.58;;
72924;SDS011;61070;50.794;7.054;2022-12-07T01:07:43;51.90;;;27.33;;
72924;SDS011;61070;50.794;7.054;2022-12-07T01:10:09;47.42;;;25.92;;
72924;SDS011;61070;50.794;7.054;2022-12-07T01:12:34;46.85;;;25.58;;
72924;SDS011;61070;50.794;7.054;2022-12-07T01:15:00;52.67;;;27.25;;
72924;SDS011;61070;50.794;7.054;2022-12-07T01:17:25;54.60;;;27.42;;
72924;SDS011;61070;50.794;7.054;2022-12-07T01:19:50;57.83;;;28.45;;
72924;SDS011;61070;50.794;7.054;2022-12-07T01:22:15;53.13;;;26.88;;
72924;SDS011;61070;50.794;7.054;2022-12-07T01:24:41;50.60;;;26.92;;
72924;SDS011;61070;50.794;7.054;2022-12-07T01:27:06;50.13;;;26.70;;
72924;SDS011;61070;50.794;7.054;2022-12-07T01:29:31;62.05;;;26.50;;
72924;SDS011;61070;50.794;7.054;2022-12-07T01:31:57;53.53;;;26.25;;
72924;SDS011;61070;50.794;7.054;2022-12-07T01:34:22;49.95;;;26.70;;
72924;SDS011;61070;50.794;7.054;2022-12-07T01:36:47;47.13;;;25.48;;
72924;SDS011;61070;50.794;7.054;2022-12-07T01:39:12;48.20;;;26.13;;
72924;SDS011;61070;50.794;7.054;2022-12-07T01:41:39;55.53;;;26.08;;
72924;SDS011;61070;50.794;7.054;2022-12-07T01:45:14;52.03;;;27.50;;
72924;SDS011;61070;50.794;7.054;2022-12-07T01:47:18;54.58;;;26.38;;
72924;SDS011;61070;50.794;7.054;2022-12-07T01:49:45;49.45;;;27.20;;
72924;SDS011;61070;50.794;7.054;2022-12-07T01:52:15;53.03;;;27.77;;
72924;SDS011;61070;50.794;7.054;2022-12-07T01:54:45;51.75;;;26.55;;
72924;SDS011;61070;50.794;7.054;2022-12-07T01:57:13;49.13;;;26.25;;
72924;SDS011;61070;50.794;7.054;2022-12-07T01:59:40;47.63;;;26.95;;
72924;SDS011;61070;50.794;7.054;2022-12-07T02:02:08;45.45;;;26.00;;
72924;SDS011;61070;50.794;7.054;2022-12-07T02:04:42;52.28;;;27.80;;
72924;SDS011;61070;50.794;7.054;2022-12-07T02:07:08;52.30;;;27.45;;
72924;SDS011;61070;50.794;7.054;2022-12-07T02:09:33;52.30;;;27.98;;
72924;SDS011;61070;50.794;7.054;2022-12-07T02:11:59;59.72;;;28.65;;
72924;SDS011;61070;50.794;7.054;2022-12-07T02:14:24;51.35;;;25.80;;
72924;SDS011;61070;50.794;7.054;2022-12-07T02:19:58;59.28;;;27.30;;
72924;SDS011;61070;50.794;7.054;2022-12-07T02:25:52;49.17;;;27.88;;
72924;SDS011;61070;50.794;7.054;2022-12-07T02:28:33;52.67;;;27.80;;
72924;SDS011;61070;50.794;7.054;2022-12-07T02:31:12;48.65;;;25.98;;
72924;SDS011;61070;50.794;7.054;2022-12-07T02:33:46;57.25;;;28.98;;
72924;SDS011;61070;50.794;7.054;2022-12-07T02:36:21;53.22;;;26.90;;
72924;SDS011;61070;50.794;7.054;2022-12-07T02:38:55;50.50;;;27.13;;
72924;SDS011;61070;50.794;7.054;2022-12-07T02:41:37;61.25;;;28.40;;
72924;SDS011;61070;50.794;7.054;2022-12-07T02:44:10;52.85;;;27.98;;
72924;SDS011;61070;50.794;7.054;2022-12-07T02:46:40;54.75;;;26.88;;
72924;SDS011;61070;50.794;7.054;2022-12-07T02:49:09;51.33;;;26.45;;
72924;SDS011;61070;50.794;7.054;2022-12-07T02:51:38;48.00;;;26.30;;
72924;SDS011;61070;50.794;7.054;2022-12-07T02:56:39;57.28;;;27.17;;
72924;SDS011;61070;50.794;7.054;2022-12-07T03:02:12;48.65;;;26.13;;
72924;SDS011;61070;50.794;7.054;2022-12-07T03:07:30;45.97;;;24.15;;
72924;SDS011;61070;50.794;7.054;2022-12-07T03:12:27;55.60;;;28.45;;
72924;SDS011;61070;50.794;7.054;2022-12-07T03:15:00;52.67;;;26.00;;
72924;SDS011;61070;50.794;7.054;2022-12-07T03:17:31;49.75;;;25.60;;
72924;SDS011;61070;50.794;7.054;2022-12-07T03:20:00;50.67;;;25.98;;
72924;SDS011;61070;50.794;7.054;2022-12-07T03:22:29;45.53;;;26.23;;
72924;SDS011;61070;50.794;7.054;2022-12-07T03:24:58;48.95;;;25.33;;
72924;SDS011;61070;50.794;7.054;2022-12-07T03:27:30;50.28;;;25.27;;
72924;SDS011;61070;50.794;7.054;2022-12-07T03:30:02;54.25;;;25.63;;
72924;SDS011;61070;50.794;7.054;2022-12-07T03:35:05;50.38;;;27.52;;
72924;SDS011;61070;50.794;7.054;2022-12-07T03:37:44;52.20;;;25.85;;
72924;SDS011;61070;50.794;7.054;2022-12-07T03:42:50;52.08;;;25.77;;
72924;SDS011;61070;50.794;7.054;2022-12-07T03:45:16;57.20;;;25.85;;
72924;SDS011;61070;50.794;7.054;2022-12-07T03:47:45;49.75;;;25.77;;
72924;SDS011;61070;50.794;7.054;2022-12-07T03:50:25;52.72;;;26.67;;
72924;SDS011;61070;50.794;7.054;2022-12-07T03:53:39;43.33;;;23.67;;
72924;SDS011;61070;50.794;7.054;2022-12-07T03:55:55;48.37;;;24.23;;
72924;SDS011;61070;50.794;7.054;2022-12-07T03:58:21;42.63;;;24.35;;
72924;SDS011;61070;50.794;7.054;2022-12-07T04:00:48;51.17;;;25.80;;
72924;SDS011;61070;50.794;7.054;2022-12-07T04:03:15;48.03;;;25.20;;
72924;SDS011;61070;50.794;7.054;2022-12-07T04:05:40;50.70;;;25.13;;
72924;SDS011;61070;50.794;7.054;2022-12-07T04:08:06;53.38;;;24.67;;
72924;SDS011;61070;50.794;7.054;2022-12-07T04:10:31;56.67;;;25.40;;
72924;SDS011;61070;50.794;7.054;2022-12-07T04:12:57;50.47;;;26.38;;
72924;SDS011;61070;50.794;7.054;2022-12-07T04:15:22;50.85;;;25.70;;
72924;SDS011;61070;50.794;7.054;2022-12-07T04:17:47;45.85;;;24.50;;
72924;SDS011;61070;50.794;7.054;2022-12-07T04:20:13;42.58;;;23.92;;
72924;SDS011;61070;50.794;7.054;2022-12-07T04:22:39;49.33;;;24.80;;
72924;SDS011;61070;50.794;7.054;2022-12-07T04:25:04;51.97;;;25.10;;
72924;SDS011;61070;50.794;7.054;2022-12-07T04:27:30;51.38;;;26.55;;
72924;SDS011;61070;50.794;7.054;2022-12-07T04:29:55;46.25;;;24.52;;
72924;SDS011;61070;50.794;7.054;2022-12-07T04:32:21;55.05;;;25.50;;
72924;SDS011;61070;50.794;7.054;2022-12-07T04:34:47;51.33;;;26.17;;
72924;SDS011;61070;50.794;7.054;2022-12-07T04:37:13;48.22;;;27.05;;
72924;SDS011;61070;50.794;7.054;2022-12-07T04:39:38;56.33;;;28.50;;
72924;SDS011;61070;50.794;7.054;2022-12-07T04:42:03;49.78;;;25.38;;
72924;SDS011;61070;50.794;7.054;2022-12-07T04:44:29;53.17;;;26.30;;
72924;SDS011;61070;50.794;7.054;2022-12-07T04:46:55;57.08;;;27.25;;
72924;SDS011;61070;50.794;7.054;2022-12-07T04:49:20;56.58;;;28.48;;
72924;SDS011;61070;50.794;7.054;2022-12-07T04:51:46;52.10;;;26.48;;
72924;SDS011;61070;50.794;7.054;2022-12-07T04:54:12;57.60;;;27.25;;
72924;SDS011;61070;50.794;7.054;2022-12-07T04:56:39;45.20;;;26.15;;
72924;SDS011;61070;50.794;7.054;2022-12-07T04:59:05;55.10;;;26.38;;
72924;SDS011;61070;50.794;7.054;2022-12-07T05:01:31;48.55;;;25.05;;
72924;SDS011;61070;50.794;7.054;2022-12-07T05:03:56;46.83;;;26.67;;
72924;SDS011;61070;50.794;7.054;2022-12-07T05:06:22;50.13;;;25.73;;
72924;SDS011;61070;50.794;7.054;2022-12-07T05:08:47;52.40;;;24.65;;
72924;SDS011;61070;50.794;7.054;2022-12-07T05:11:13;51.90;;;24.40;;
72924;SDS011;61070;50.794;7.054;2022-12-07T05:13:57;47.97;;;24.83;;
72924;SDS011;61070;50.794;7.054;2022-12-07T05:16:22;56.00;;;25.90;;
72924;SDS011;61070;50.794;7.054;2022-12-07T05:18:48;51.67;;;27.52;;
72924;SDS011;61070;50.794;7.054;2022-12-07T05:21:13;50.55;;;24.63;;
72924;SDS011;61070;50.794;7.054;2022-12-07T05:23:38;61.00;;;26.38;;
72924;SDS011;61070;50.794;7.054;2022-12-07T05:26:04;58.08;;;26.45;;
72924;SDS011;61070;50.794;7.054;2022-12-07T05:28:29;45.40;;;24.17;;
72924;SDS011;61070;50.794;7.054;2022-12-07T05:30:54;49.35;;;24.02;;
72924;SDS011;61070;50.794;7.054;2022-12-07T05:33:20;51.45;;;25.17;;
72924;SDS011;61070;50.794;7.054;2022-12-07T05:35:45;55.67;;;23.40;;
72924;SDS011;61070;50.794;7.054;2022-12-07T05:38:10;49.55;;;24.77;;
72924;SDS011;61070;50.794;7.054;2022-12-07T05:40:36;43.75;;;22.55;;
72924;SDS011;61070;50.794;7.054;2022-12-07T05:43:02;53.15;;;23.95;;
72924;SDS011;61070;50.794;7.054;2022-12-07T05:45:27;49.28;;;23.55;;
72924;SDS011;61070;50.794;7.054;2022-12-07T05:47:52;45.47;;;22.90;;
72924;SDS011;61070;50.794;7.054;2022-12-07T05:50:17;45.00;;;22.85;;
72924;SDS011;61070;50.794;7.054;2022-12-07T05:52:43;56.40;;;25.17;;
72924;SDS011;61070;50.794;7.054;2022-12-07T05:55:08;50.05;;;25.85;;
72924;SDS011;61070;50.794;7.054;2022-12-07T05:57:33;135.50;;;50.80;;
72924;SDS011;61070;50.794;7.054;2022-12-07T05:59:58;51.85;;;26.98;;
72924;SDS011;61070;50.794;7.054;2022-12-07T06:02:24;50.80;;;25.55;;
72924;SDS011;61070;50.794;7.054;2022-12-07T06:04:49;48.33;;;25.70;;
72924;SDS011;61070;50.794;7.054;2022-12-07T06:07:15;45.60;;;23.63;;
72924;SDS011;61070;50.794;7.054;2022-12-07T06:09:41;46.50;;;24.85;;
72924;SDS011;61070;50.794;7.054;2022-12-07T06:12:08;51.72;;;25.05;;
72924;SDS011;61070;50.794;7.054;2022-12-07T06:14:53;48.25;;;23.42;;
72924;SDS011;61070;50.794;7.054;2022-12-07T06:17:19;53.83;;;26.33;;
72924;SDS011;61070;50.794;7.054;2022-12-07T06:19:44;53.58;;;24.23;;
72924;SDS011;61070;50.794;7.054;2022-12-07T06:22:09;47.22;;;24.67;;
72924;SDS011;61070;50.794;7.054;2022-12-07T06:24:36;69.85;;;30.88;;
72924;SDS011;61070;50.794;7.054;2022-12-07T06:27:02;62.08;;;28.92;;
72924;SDS011;61070;50.794;7.054;2022-12-07T06:29:28;63.17;;;25.38;;
72924;SDS011;61070;50.794;7.054;2022-12-07T06:31:53;47.63;;;23.30;;
72924;SDS011;61070;50.794;7.054;2022-12-07T06:34:19;48.83;;;24.98;;
72924;SDS011;61070;50.794;7.054;2022-12-07T06:36:47;51.85;;;24.00;;
72924;SDS011;61070;50.794;7.054;2022-12-07T06:39:16;53.95;;;25.65;;
72924;SDS011;61070;50.794;7.054;2022-12-07T06:41:43;54.95;;;23.83;;
72924;SDS011;61070;50.794;7.054;2022-12-07T06:44:09;46.70;;;24.90;;
72924;SDS011;61070;50.794;7.054;2022-12-07T06:46:34;47.53;;;24.05;;
72924;SDS011;61070;50.794;7.054;2022-12-07T06:49:03;54.53;;;26.23;;
72924;SDS011;61070;50.794;7.054;2022-12-07T06:51:29;56.83;;;26.10;;
72924;SDS011;61070;50.794;7.054;2022-12-07T06:53:56;51.72;;;25.08;;
72924;SDS011;61070;50.794;7.054;2022-12-07T06:56:21;48.47;;;24.40;;
72924;SDS011;61070;50.794;7.054;2022-12-07T06:58:48;54.20;;;24.90;;
72924;SDS011;61070;50.794;7.054;2022-12-07T07:01:14;49.65;;;24.85;;
72924;SDS011;61070;50.794;7.054;2022-12-07T07:03:41;44.15;;;23.15;;
72924;SDS011;61070;50.794;7.054;2022-12-07T07:06:07;44.38;;;23.25;;
72924;SDS011;61070;50.794;7.054;2022-12-07T07:08:34;44.47;;;23.48;;
72924;SDS011;61070;50.794;7.054;2022-12-07T07:11:00;36.92;;;19.80;;
72924;SDS011;61070;50.794;7.054;2022-12-07T07:13:25;40.70;;;22.05;;
72924;SDS011;61070;50.794;7.054;2022-12-07T07:15:51;35.30;;;19.90;;
72924;SDS011;61070;50.794;7.054;2022-12-07T07:18:16;38.63;;;19.88;;
72924;SDS011;61070;50.794;7.054;2022-12-07T07:20:41;43.63;;;20.50;;
72924;SDS011;61070;50.794;7.054;2022-12-07T07:23:07;40.05;;;19.08;;
72924;SDS011;61070;50.794;7.054;2022-12-07T07:25:32;39.67;;;18.75;;
72924;SDS011;61070;50.794;7.054;2022-12-07T07:27:58;39.83;;;19.55;;
72924;SDS011;61070;50.794;7.054;2022-12-07T07:30:23;37.63;;;19.15;;
72924;SDS011;61070;50.794;7.054;2022-12-07T07:32:49;43.85;;;21.10;;
72924;SDS011;61070;50.794;7.054;2022-12-07T07:35:14;41.03;;;20.00;;
72924;SDS011;61070;50.794;7.054;2022-12-07T07:37:40;37.92;;;20.48;;
72924;SDS011;61070;50.794;7.054;2022-12-07T07:40:06;40.30;;;20.35;;
72924;SDS011;61070;50.794;7.054;2022-12-07T07:42:32;41.55;;;19.80;;
72924;SDS011;61070;50.794;7.054;2022-12-07T07:44:57;47.42;;;20.83;;
72924;SDS011;61070;50.794;7.054;2022-12-07T07:47:23;37.63;;;21.40;;
72924;SDS011;61070;50.794;7.054;2022-12-07T07:49:48;40.88;;;20.63;;
72924;SDS011;61070;50.794;7.054;2022-12-07T07:52:13;43.78;;;21.05;;
72924;SDS011;61070;50.794;7.054;2022-12-07T07:54:38;46.53;;;21.48;;
72924;SDS011;61070;50.794;7.054;2022-12-07T07:57:04;48.05;;;21.08;;
72924;SDS011;61070;50.794;7.054;2022-12-07T07:59:29;44.45;;;22.02;;
72924;SDS011;61070;50.794;7.054;2022-12-07T08:01:54;47.05;;;22.27;;
72924;SDS011;61070;50.794;7.054;2022-12-07T08:04:20;49.15;;;22.30;;
72924;SDS011;61070;50.794;7.054;2022-12-07T08:06:45;45.40;;;22.02;;
72924;SDS011;61070;50.794;7.054;2022-12-07T08:09:10;47.80;;;23.05;;
72924;SDS011;61070;50.794;7.054;2022-12-07T08:11:35;50.80;;;23.02;;
72924;SDS011;61070;50.794;7.054;2022-12-07T08:14:01;46.70;;;22.33;;
72924;SDS011;61070;50.794;7.054;2022-12-07T08:16:27;52.42;;;23.50;;
72924;SDS011;61070;50.794;7.054;2022-12-07T08:18:52;53.97;;;23.52;;
72924;SDS011;61070;50.794;7.054;2022-12-07T08:21:17;43.13;;;22.38;;
72924;SDS011;61070;50.794;7.054;2022-12-07T08:23:43;45.80;;;21.83;;
72924;SDS011;61070;50.794;7.054;2022-12-07T08:26:09;48.00;;;22.80;;
72924;SDS011;61070;50.794;7.054;2022-12-07T08:28:37;68.07;;;28.58;;
72924;SDS011;61070;50.794;7.054;2022-12-07T08:31:03;85.30;;;35.88;;
72924;SDS011;61070;50.794;7.054;2022-12-07T08:33:33;50.38;;;23.83;;
72924;SDS011;61070;50.794;7.054;2022-12-07T08:36:06;52.45;;;23.02;;
72924;SDS011;61070;50.794;7.054;2022-12-07T08:38:34;48.47;;;21.88;;
72924;SDS011;61070;50.794;7.054;2022-12-07T08:41:00;42.65;;;20.80;;
72924;SDS011;61070;50.794;7.054;2022-12-07T08:43:26;41.20;;;22.15;;
72924;SDS011;61070;50.794;7.054;2022-12-07T08:45:54;40.53;;;21.00;;
72924;SDS011;61070;50.794;7.054;2022-12-07T08:48:36;40.30;;;20.73;;
72924;SDS011;61070;50.794;7.054;2022-12-07T08:51:05;36.85;;;19.50;;
72924;SDS011;61070;50.794;7.054;2022-12-07T08:53:31;39.08;;;19.35;;
72924;SDS011;61070;50.794;7.054;2022-12-07T08:55:59;38.83;;;18.92;;
72924;SDS011;61070;50.794;7.054;2022-12-07T08:58:24;41.10;;;19.50;;
72924;SDS011;61070;50.794;7.054;2022-12-07T09:00:50;33.47;;;18.63;;
72924;SDS011;61070;50.794;7.054;2022-12-07T09:03:15;44.38;;;18.67;;
72924;SDS011;61070;50.794;7.054;2022-12-07T09:05:40;41.40;;;20.67;;
72924;SDS011;61070;50.794;7.054;2022-12-07T09:08:06;39.25;;;19.35;;
72924;SDS011;61070;50.794;7.054;2022-12-07T09:10:32;55.72;;;19.23;;
72924;SDS011;61070;50.794;7.054;2022-12-07T09:12:57;44.20;;;20.50;;
72924;SDS011;61070;50.794;7.054;2022-12-07T09:15:27;61.08;;;26.23;;
72924;SDS011;61070;50.794;7.054;2022-12-07T09:17:53;43.55;;;18.55;;
72924;SDS011;61070;50.794;7.054;2022-12-07T09:20:18;43.15;;;19.98;;
72924;SDS011;61070;50.794;7.054;2022-12-07T09:22:43;43.22;;;19.65;;
72924;SDS011;61070;50.794;7.054;2022-12-07T09:25:09;49.15;;;22.75;;
72924;SDS011;61070;50.794;7.054;2022-12-07T09:27:34;50.80;;;23.33;;
72924;SDS011;61070;50.794;7.054;2022-12-07T09:29:59;56.83;;;23.95;;
72924;SDS011;61070;50.794;7.054;2022-12-07T09:32:25;45.85;;;21.50;;
72924;SDS011;61070;50.794;7.054;2022-12-07T09:34:50;72.47;;;28.40;;
72924;SDS011;61070;50.794;7.054;2022-12-07T09:37:16;47.33;;;22.63;;
72924;SDS011;61070;50.794;7.054;2022-12-07T09:39:41;46.10;;;21.08;;
72924;SDS011;61070;50.794;7.054;2022-12-07T09:42:06;40.95;;;21.55;;
72924;SDS011;61070;50.794;7.054;2022-12-07T09:44:33;45.85;;;22.33;;
72924;SDS011;61070;50.794;7.054;2022-12-07T09:46:59;48.35;;;21.23;;
72924;SDS011;61070;50.794;7.054;2022-12-07T09:49:27;48.60;;;20.15;;
72924;SDS011;61070;50.794;7.054;2022-12-07T09:52:02;47.70;;;21.27;;
72924;SDS011;61070;50.794;7.054;2022-12-07T09:54:39;49.53;;;21.08;;
72924;SDS011;61070;50.794;7.054;2022-12-07T09:57:08;46.00;;;20.63;;
72924;SDS011;61070;50.794;7.054;2022-12-07T09:59:37;48.15;;;19.30;;
72924;SDS011;61070;50.794;7.054;2022-12-07T10:04:46;45.13;;;22.55;;
72924;SDS011;61070;50.794;7.054;2022-12-07T10:07:12;49.25;;;21.70;;
72924;SDS011;61070;50.794;7.054;2022-12-07T10:09:37;55.95;;;23.65;;
72924;SDS011;61070;50.794;7.054;2022-12-07T10:14:36;42.05;;;20.60;;
72924;SDS011;61070;50.794;7.054;2022-12-07T10:18:13;39.80;;;19.20;;
72924;SDS011;61070;50.794;7.054;2022-12-07T10:20:29;39.92;;;19.50;;
72924;SDS011;61070;50.794;7.054;2022-12-07T10:22:55;50.70;;;19.17;;
72924;SDS011;61070;50.794;7.054;2022-12-07T10:25:31;32.00;;;17.83;;
72924;SDS011;61070;50.794;7.054;2022-12-07T10:28:08;37.28;;;16.77;;
72924;SDS011;61070;50.794;7.054;2022-12-07T10:35:58;33.17;;;16.67;;
72924;SDS011;61070;50.794;7.054;2022-12-07T10:38:24;38.17;;;19.33;;
72924;SDS011;61070;50.794;7.054;2022-12-07T10:41:02;33.88;;;16.58;;
72924;SDS011;61070;50.794;7.054;2022-12-07T10:43:28;33.78;;;16.38;;
72924;SDS011;61070;50.794;7.054;2022-12-07T10:52:09;41.22;;;17.90;;
72924;SDS011;61070;50.794;7.054;2022-12-07T10:58:02;25.80;;;13.50;;
72924;SDS011;61070;50.794;7.054;2022-12-07T11:17:53;26.17;;;10.77;;
72924;SDS011;61070;50.794;7.054;2022-12-07T11:33:44;20.30;;;8.40;;
72924;SDS011;61070;50.794;7.054;2022-12-07T11:39:00;17.17;;;9.52;;
72924;SDS011;61070;50.794;7.054;2022-12-07T11:46:57;20.05;;;8.25;;
72924;SDS011;61070;50.794;7.054;2022-12-07T11:49:40;16.52;;;8.77;;
72924;SDS011;61070;50.794;7.054;2022-12-07T11:52:08;19.30;;;7.43;;
72924;SDS011;61070;50.794;7.054;2022-12-07T11:54:42;17.20;;;8.20;;
72924;SDS011;61070;50.794;7.054;2022-12-07T11:57:29;19.27;;;5.88;;
72924;SDS011;61070;50.794;7.054;2022-12-07T12:00:05;17.35;;;5.80;;
72924;SDS011;61070;50.794;7.054;2022-12-07T12:02:41;15.43;;;5.15;;
72924;SDS011;61070;50.794;7.054;2022-12-07T12:05:19;13.02;;;5.50;;
72924;SDS011;61070;50.794;7.054;2022-12-07T12:07:48;16.98;;;5.30;;
72924;SDS011;61070;50.794;7.054;2022-12-07T12:10:39;13.48;;;6.38;;
72924;SDS011;61070;50.794;7.054;2022-12-07T12:15:45;23.77;;;7.20;;
72924;SDS011;61070;50.794;7.054;2022-12-07T12:21:41;20.55;;;7.55;;
72924;SDS011;61070;50.794;7.054;2022-12-07T12:24:12;19.63;;;7.70;;
72924;SDS011;61070;50.794;7.054;2022-12-07T12:26:50;23.48;;;7.72;;
72924;SDS011;61070;50.794;7.054;2022-12-07T12:29:22;21.30;;;7.97;;
72924;SDS011;61070;50.794;7.054;2022-12-07T12:32:16;17.60;;;8.13;;
72924;SDS011;61070;50.794;7.054;2022-12-07T12:37:36;19.73;;;9.50;;
72924;SDS011;61070;50.794;7.054;2022-12-07T12:42:51;23.92;;;9.10;;
72924;SDS011;61070;50.794;7.054;2022-12-07T12:45:25;22.48;;;8.75;;
72924;SDS011;61070;50.794;7.054;2022-12-07T12:48:02;19.67;;;8.50;;
72924;SDS011;61070;50.794;7.054;2022-12-07T12:53:05;20.98;;;9.82;;
72924;SDS011;61070;50.794;7.054;2022-12-07T12:56:14;21.25;;;9.10;;
72924;SDS011;61070;50.794;7.054;2022-12-07T12:59:18;25.45;;;11.80;;
72924;SDS011;61070;50.794;7.054;2022-12-07T13:01:47;32.58;;;9.13;;
72924;SDS011;61070;50.794;7.054;2022-12-07T13:04:18;27.48;;;11.95;;
72924;SDS011;61070;50.794;7.054;2022-12-07T13:06:49;20.05;;;8.93;;
72924;SDS011;61070;50.794;7.054;2022-12-07T13:09:22;21.45;;;8.35;;
72924;SDS011;61070;50.794;7.054;2022-12-07T13:11:50;16.27;;;8.68;;
72924;SDS011;61070;50.794;7.054;2022-12-07T13:17:12;34.40;;;16.25;;
72924;SDS011;61070;50.794;7.054;2022-12-07T13:20:04;38.13;;;14.15;;
72924;SDS011;61070;50.794;7.054;2022-12-07T13:27:38;20.67;;;10.70;;
72924;SDS011;61070;50.794;7.054;2022-12-07T13:30:13;22.50;;;9.68;;
72924;SDS011;61070;50.794;7.054;2022-12-07T13:32:40;18.13;;;7.75;;
72924;SDS011;61070;50.794;7.054;2022-12-07T13:35:27;19.65;;;8.80;;
72924;SDS011;61070;50.794;7.054;2022-12-07T13:38:02;20.98;;;10.23;;
72924;SDS011;61070;50.794;7.054;2022-12-07T13:40:30;19.98;;;10.55;;
72924;SDS011;61070;50.794;7.054;2022-12-07T13:42:59;23.00;;;9.55;;
72924;SDS011;61070;50.794;7.054;2022-12-07T13:45:27;26.17;;;10.48;;
72924;SDS011;61070;50.794;7.054;2022-12-07T13:51:14;36.72;;;16.80;;
72924;SDS011;61070;50.794;7.054;2022-12-07T13:53:46;26.00;;;11.40;;
72924;SDS011;61070;50.794;7.054;2022-12-07T13:56:12;26.80;;;9.55;;
72924;SDS011;61070;50.794;7.054;2022-12-07T13:58:40;27.58;;;12.23;;
72924;SDS011;61070;50.794;7.054;2022-12-07T14:01:05;22.00;;;9.63;;
72924;SDS011;61070;50.794;7.054;2022-12-07T14:03:32;19.30;;;9.00;;
72924;SDS011;61070;50.794;7.054;2022-12-07T14:06:06;22.77;;;9.50;;
72924;SDS011;61070;50.794;7.054;2022-12-07T14:08:40;19.70;;;9.20;;
72924;SDS011;61070;50.794;7.054;2022-12-07T14:11:06;23.23;;;10.98;;
72924;SDS011;61070;50.794;7.054;2022-12-07T14:14:11;19.65;;;8.15;;
72924;SDS011;61070;50.794;7.054;2022-12-07T14:16:31;16.33;;;5.20;;
72924;SDS011;61070;50.794;7.054;2022-12-07T14:19:02;10.60;;;5.22;;
72924;SDS011;61070;50.794;7.054;2022-12-07T14:21:30;11.48;;;6.13;;
72924;SDS011;61070;50.794;7.054;2022-12-07T14:26:37;17.48;;;6.60;;
72924;SDS011;61070;50.794;7.054;2022-12-07T14:31:54;19.83;;;7.45;;
72924;SDS011;61070;50.794;7.054;2022-12-07T14:34:21;13.30;;;7.45;;
72924;SDS011;61070;50.794;7.054;2022-12-07T14:36:47;25.10;;;8.10;;
72924;SDS011;61070;50.794;7.054;2022-12-07T14:39:13;12.00;;;7.22;;
72924;SDS011;61070;50.794;7.054;2022-12-07T14:41:38;11.52;;;6.47;;
72924;SDS011;61070;50.794;7.054;2022-12-07T14:44:16;18.63;;;6.72;;
72924;SDS011;61070;50.794;7.054;2022-12-07T14:46:43;15.38;;;7.15;;
72924;SDS011;61070;50.794;7.054;2022-12-07T14:49:08;13.82;;;6.55;;
72924;SDS011;61070;50.794;7.054;2022-12-07T14:51:34;13.25;;;7.05;;
72924;SDS011;61070;50.794;7.054;2022-12-07T14:54:02;13.70;;;7.20;;
72924;SDS011;61070;50.794;7.054;2022-12-07T14:56:30;22.08;;;8.30;;
72924;SDS011;61070;50.794;7.054;2022-12-07T14:58:55;14.25;;;8.02;;
72924;SDS011;61070;50.794;7.054;2022-12-07T15:01:21;17.77;;;7.63;;
72924;SDS011;61070;50.794;7.054;2022-12-07T15:03:46;21.15;;;7.80;;
72924;SDS011;61070;50.794;7.054;2022-12-07T15:06:13;13.77;;;7.72;;
72924;SDS011;61070;50.794;7.054;2022-12-07T15:08:40;15.18;;;7.95;;
72924;SDS011;61070;50.794;7.054;2022-12-07T15:11:05;15.93;;;7.80;;
72924;SDS011;61070;50.794;7.054;2022-12-07T15:13:31;19.48;;;8.60;;
72924;SDS011;61070;50.794;7.054;2022-12-07T15:16:16;14.82;;;8.20;;
72924;SDS011;61070;50.794;7.054;2022-12-07T15:18:44;16.38;;;8.35;;
72924;SDS011;61070;50.794;7.054;2022-12-07T15:21:13;17.85;;;8.70;;
72924;SDS011;61070;50.794;7.054;2022-12-07T15:23:40;22.38;;;9.07;;
72924;SDS011;61070;50.794;7.054;2022-12-07T15:26:06;20.05;;;9.23;;
72924;SDS011;61070;50.794;7.054;2022-12-07T15:28:32;19.63;;;8.27;;
72924;SDS011;61070;50.794;7.054;2022-12-07T15:30:58;26.05;;;11.25;;
72924;SDS011;61070;50.794;7.054;2022-12-07T15:33:23;30.60;;;10.48;;
72924;SDS011;61070;50.794;7.054;2022-12-07T15:35:48;21.85;;;11.60;;
72924;SDS011;61070;50.794;7.054;2022-12-07T15:38:14;36.53;;;17.02;;
72924;SDS011;61070;50.794;7.054;2022-12-07T15:40:39;34.75;;;14.68;;
72924;SDS011;61070;50.794;7.054;2022-12-07T15:43:04;21.77;;;10.77;;
72924;SDS011;61070;50.794;7.054;2022-12-07T15:45:50;22.73;;;11.57;;
72924;SDS011;61070;50.794;7.054;2022-12-07T15:48:15;28.38;;;12.90;;
72924;SDS011;61070;50.794;7.054;2022-12-07T15:50:40;23.45;;;10.05;;
72924;SDS011;61070;50.794;7.054;2022-12-07T15:53:05;30.55;;;11.80;;
72924;SDS011;61070;50.794;7.054;2022-12-07T15:55:31;20.75;;;12.13;;
72924;SDS011;61070;50.794;7.054;2022-12-07T15:57:56;34.42;;;14.07;;
72924;SDS011;61070;50.794;7.054;2022-12-07T16:00:21;27.88;;;11.93;;
72924;SDS011;61070;50.794;7.054;2022-12-07T16:02:46;30.10;;;11.40;;
72924;SDS011;61070;50.794;7.054;2022-12-07T16:05:12;19.40;;;9.45;;
72924;SDS011;61070;50.794;7.054;2022-12-07T16:07:37;18.73;;;10.20;;
72924;SDS011;61070;50.794;7.054;2022-12-07T16:10:02;22.98;;;9.80;;
72924;SDS011;61070;50.794;7.054;2022-12-07T16:12:28;14.88;;;8.88;;
72924;SDS011;61070;50.794;7.054;2022-12-07T16:14:53;20.10;;;9.52;;
72924;SDS011;61070;50.794;7.054;2022-12-07T16:17:19;19.08;;;9.05;;
72924;SDS011;61070;50.794;7.054;2022-12-07T16:19:44;23.50;;;10.50;;
72924;SDS011;61070;50.794;7.054;2022-12-07T16:22:09;19.63;;;10.25;;
72924;SDS011;61070;50.794;7.054;2022-12-07T16:24:35;16.05;;;9.15;;
72924;SDS011;61070;50.794;7.054;2022-12-07T16:27:00;23.00;;;9.65;;